Latest Weather Observations for Parawa West

IDS60901

Issued at 11:45 pm CDT Sunday 23 November 2014 (issued every 10 minutes, with the page automatically refreshed every 10 minutes)

About weather observations | Map of Adelaide area stations | Latest observations for Adelaide area | Other Formats
Station Details ID: 023875 Name: SECOND VALLEY FOREST AWS Lat: -35.57 Lon: 138.29 Height: 341.0 m
Data from the previous 72 hours. | See also: Recent months at Parawa West
Date/Time
CDT
Tmp

°C
App
Tmp
°C
Dew
Point
°C
Rel
Hum
%
Delta-T

°C
Wind Press
QNH
hPa
Press
MSL
hPa
Rain
since
9 am
mm
Dir
 
Spd
km/h
Gust
km/h
Spd
kts
Gust
kts
23/11:30pm 14.2 11.3 12.9 92 0.7 SE 20 28 11 15 1010.3 1009.8 0.0
23/11:00pm 14.4 11.7 13.4 94 0.6 SE 20 28 11 15 1010.7 1010.2 0.0
23/10:30pm 14.7 12.4 14.2 97 0.3 SE 19 28 10 15 1010.9 1010.4 0.0
23/10:00pm 15.0 12.6 14.5 97 0.3 SSE 20 26 11 14 1011.3 1010.7 0.0
23/09:30pm 14.9 13.2 13.6 92 0.7 SE 15 17 8 9 1011.2 1010.6 0.0
23/09:00pm 15.4 12.9 12.3 82 1.7 SE 17 22 9 12 1011.1 1010.5 0.0
23/08:30pm 15.9 14.2 12.5 80 1.9 SSE 13 17 7 9 1011.1 1010.5 0.0
23/08:00pm 17.1 15.6 12.0 72 2.8 S 11 15 6 8 1010.7 1010.2 0.0
23/07:30pm 20.0 18.8 9.6 51 5.6 SE 6 9 3 5 1010.6 1010.1 0.0
23/07:00pm 21.4 19.8 11.7 54 5.5 SSE 11 15 6 8 1010.1 1009.5 0.0
23/06:30pm 23.2 21.2 6.1 33 8.9 WNW 6 7 3 4 1010.2 1009.7 0.0
23/06:00pm 23.1 21.2 5.1 31 9.1 N 4 6 2 3 1010.8 1010.3 0.0
23/05:30pm 23.2 20.8 4.2 29 9.5 NNW 6 13 3 7 1011.2 1010.6 0.0
23/05:00pm 22.0 19.6 4.1 31 8.9 NW 6 7 3 4 1011.3 1010.7 0.0
23/04:30pm 21.6 19.7 4.7 33 8.4 NW 4 6 2 3 1011.5 1010.9 0.0
23/04:00pm 21.4 18.8 6.1 37 7.8 NW 9 15 5 8 1012.3 1011.7 0.0
23/03:30pm 21.5 18.4 7.3 40 7.4 NW 13 26 7 14 1012.9 1012.4 0.0
23/03:00pm 22.4 18.3 7.8 39 7.8 NW 19 26 10 14 1012.5 1011.9 0.0
23/02:30pm 23.0 22.2 11.1 47 6.7 SSE 6 9 3 5 1012.2 1011.6 0.0
23/02:00pm 21.4 19.0 12.5 57 5.1 SSE 17 20 9 11 1012.0 1011.4 0.0
23/01:30pm 23.6 21.3 5.5 31 9.3 WSW 7 17 4 9 1012.7 1012.2 0.0
23/01:00pm 23.2 21.3 7.7 37 8.3 NW 7 15 4 8 1013.3 1012.8 0.0
23/12:30pm 21.3 18.8 6.4 38 7.7 NW 9 17 5 9 1013.6 1013.1 0.0
23/12:00pm 20.8 17.6 6.7 40 7.3 NW 13 20 7 11 1013.5 1013.0 0.0
23/11:30am 21.5 19.8 8.4 43 7.0 NW 7 13 4 7 1013.1 1012.6 0.0
23/11:00am 20.6 18.7 8.9 47 6.3 NW 9 15 5 8 1012.9 1012.4 0.0
23/10:30am 19.7 18.3 8.7 49 5.9 WNW 6 11 3 6 1012.9 1012.4 0.0
23/10:00am 20.0 19.1 9.3 50 5.8 N 4 9 2 5 1012.6 1012.0 0.0
23/09:30am 18.3 17.7 10.4 60 4.3 N 4 6 2 3 1012.6 1012.0 0.0
23/09:00am 16.6 16.7 11.5 72 2.8 NE 2 6 1 3 1012.9 1012.4 0.2
23/08:30am 15.5 15.5 12.4 82 1.7 NNE 4 7 2 4 1012.7 1012.2 0.2
23/08:00am 14.1 14.6 14.1 100 0.0 N 4 7 2 4 1012.8 1012.3 0.2
23/07:30am 12.8 13.3 12.8 100 0.0 N 2 4 1 2 1012.7 1012.2 0.2
23/07:00am 11.8 12.0 11.8 100 0.0 N 2 6 1 3 1012.6 1012.0 0.2
23/06:30am 11.0 10.6 11.0 100 0.0 N 4 6 2 3 1012.7 1012.2 0.2
23/06:00am 11.0 10.6 11.0 100 0.0 S 4 6 2 3 1012.5 1011.9 0.2
23/05:30am 10.9 10.8 10.9 100 0.0 S 2 4 1 2 1012.2 1011.6 0.2
23/05:00am 10.8 11.1 10.8 100 0.0 CALM 0 0 0 0 1012.1 1011.5 0.2
23/04:30am 10.7 10.2 10.7 100 0.0 S 4 6 2 3 1011.9 1011.3 0.2
23/04:00am 11.0 10.2 11.0 100 0.0 S 6 7 3 4 1011.9 1011.3 0.2
23/03:30am 11.5 12.0 11.5 100 0.0 CALM 0 0 0 0 1012.0 1011.4 0.2
23/03:00am 11.7 11.9 11.7 100 0.0 S 2 2 1 1 1011.9 1011.3 0.0
23/02:30am 11.7 11.9 11.7 100 0.0 S 2 4 1 2 1011.9 1011.3 0.0
23/02:00am 11.3 11.0 11.3 100 0.0 S 4 6 2 3 1012.1 1011.5 0.0
23/01:30am 10.9 9.9 10.9 100 0.0 S 7 9 4 5 1012.3 1011.7 0.0
23/01:00am 11.4 9.7 11.2 99 0.1 S 11 13 6 7 1012.4 1011.8 0.0
23/12:30am 11.5 10.2 11.3 99 0.1 S 9 13 5 7 1012.7 1012.2 0.0
23/12:00am 11.5 10.2 11.2 98 0.2 S 9 13 5 7 1012.7 1012.2 0.0
 
Date/Time
CDT
Tmp

°C
App
Tmp
°C
Dew
Point
°C
Rel
Hum
%
Delta-T

°C
Wind Press
QNH
hPa
Press
MSL
hPa
Rain
since
9 am
mm
Dir
 
Spd
km/h
Gust
km/h
Spd
kts
Gust
kts
22/11:30pm 12.0 10.4 11.5 97 0.3 S 11 15 6 8 1012.7 1012.2 0.0
22/11:00pm 12.3 10.7 11.7 96 0.3 SSE 11 13 6 7 1012.9 1012.4 0.0
22/10:30pm 12.6 10.7 11.7 94 0.5 S 13 17 7 9 1012.9 1012.4 0.0
22/10:00pm 13.0 10.7 11.7 92 0.7 S 15 20 8 11 1012.6 1012.0 0.0
22/09:30pm 13.1 10.6 12.3 95 0.4 S 17 22 9 12 1012.2 1011.6 0.0
22/09:00pm 13.3 10.9 12.5 95 0.4 S 17 24 9 13 1011.8 1011.2 0.0
22/08:30pm 13.5 11.3 12.2 92 0.7 S 15 20 8 11 1011.4 1010.8 0.0
22/08:00pm 14.1 11.7 12.5 90 0.9 S 17 24 9 13 1010.8 1010.3 0.0
22/07:30pm 14.8 11.9 12.3 85 1.4 S 19 24 10 13 1010.5 1010.0 0.0
22/07:00pm 15.5 12.3 13.2 86 1.3 S 22 28 12 15 1010.0 1009.4 0.0
22/06:30pm 15.9 12.7 13.2 84 1.5 S 22 28 12 15 1009.6 1009.0 0.0
22/06:00pm 15.9 13.0 14.1 89 1.0 S 22 30 12 16 1009.4 1008.8 0.0
22/05:30pm 16.9 13.8 14.5 86 1.4 S 24 30 13 16 1009.1 1008.5 0.0
22/05:00pm 18.4 16.1 14.7 79 2.2 S 20 26 11 14 1008.6 1008.0 0.0
22/04:30pm 22.5 20.5 12.7 54 5.7 W 15 22 8 12 1008.1 1007.5 0.0
22/04:00pm 22.6 19.3 12.8 54 5.7 W 22 33 12 18 1008.2 1007.6 0.0
22/03:30pm 22.5 20.3 13.3 56 5.4 W 17 30 9 16 1007.4 1006.8 0.0
22/03:00pm 20.5 18.6 15.1 71 3.2 NW 19 30 10 16 1007.9 1007.4 0.0
22/02:30pm 21.8 19.3 15.2 66 4.0 NNW 22 33 12 18 1007.8 1007.3 0.0
22/02:00pm 22.2 19.8 14.3 61 4.7 NW 20 33 11 18 1007.5 1006.9 0.0
22/01:30pm 21.8 20.1 14.7 64 4.3 NNW 17 32 9 17 1007.6 1007.1 0.0
22/01:00pm 23.5 21.6 14.2 56 5.6 NW 17 30 9 16 1007.4 1006.8 0.0
22/12:30pm 22.7 21.7 14.5 60 4.9 NW 13 26 7 14 1007.6 1007.1 0.0
22/12:00pm 21.8 20.0 15.4 67 3.9 NW 19 32 10 17 1007.6 1007.1 0.0
22/11:30am 21.2 19.6 15.1 68 3.7 NW 17 30 9 16 1007.8 1007.3 0.0
22/11:00am 22.3 22.0 15.4 65 4.2 NW 11 28 6 15 1007.8 1007.3 0.0
22/10:30am 21.4 20.9 13.8 62 4.5 NW 9 20 5 11 1007.3 1006.7 0.0
22/10:00am 21.0 19.2 13.2 61 4.5 NW 15 32 8 17 1007.6 1007.1 0.0
22/09:30am 20.5 19.0 13.2 63 4.2 NW 13 28 7 15 1007.6 1007.1 0.0
22/09:00am 19.7 18.9 14.1 70 3.3 NW 11 22 6 12 1007.6 1007.1 1.0
22/08:30am 17.8 18.6 14.9 83 1.7 N 4 9 2 5 1007.7 1007.2 1.0
22/08:00am 15.9 15.6 12.6 81 1.8 NNW 6 11 3 6 1008.5 1007.9 0.6
22/07:30am 17.7 17.0 11.5 67 3.4 N 6 13 3 7 1008.2 1007.6 0.0
22/07:00am 18.9 15.8 10.2 57 4.7 NNW 17 28 9 15 1009.0 1008.4 0.0
22/06:30am 20.2 17.5 8.8 48 6.1 NNW 13 22 7 12 1007.8 1007.3 0.0
22/06:00am 17.4 16.6 9.8 61 4.1 S 4 9 2 5 1007.1 1006.5 0.0
22/05:30am 18.2 16.5 9.8 58 4.5 SSW 9 11 5 6 1007.8 1007.3 0.0
22/05:00am 22.1 19.9 5.5 34 8.4 SSW 6 15 3 8 1006.8 1006.2 0.0
22/04:30am 21.4 19.2 5.3 35 8.1 SSE 6 9 3 5 1006.3 1005.7 0.0
22/04:00am 22.3 19.9 4.4 31 8.9 N 6 20 3 11 1006.4 1005.8 0.0
22/03:30am 20.4 18.6 5.2 37 7.6 NE 4 13 2 7 1006.3 1005.7 0.0
22/03:00am 19.8 18.0 5.5 39 7.2 WNW 4 6 2 3 1006.3 1005.7 0.0
22/02:30am 20.2 18.1 5.8 39 7.3 W 6 7 3 4 1006.3 1005.7 0.0
22/02:00am 18.6 16.9 6.1 44 6.3 WNW 4 7 2 4 1006.4 1005.8 0.0
22/01:30am 17.5 15.8 6.1 47 5.7 N 4 9 2 5 1007.0 1006.4 0.0
22/01:00am 17.1 15.4 5.7 47 5.6 NNE 4 13 2 7 1007.4 1006.8 0.0
22/12:30am 17.0 15.2 5.3 46 5.7 NNE 4 7 2 4 1008.1 1007.5 0.0
22/12:00am 16.8 15.4 5.7 48 5.5 N 2 7 1 4 1009.0 1008.4 0.0
 
Date/Time
CDT
Tmp

°C
App
Tmp
°C
Dew
Point
°C
Rel
Hum
%
Delta-T

°C
Wind Press
QNH
hPa
Press
MSL
hPa
Rain
since
9 am
mm
Dir
 
Spd
km/h
Gust
km/h
Spd
kts
Gust
kts
21/11:30pm 16.4 15.4 5.7 49 5.3 CALM 0 4 0 2 1009.4 1008.8 0.0
21/11:00pm 17.0 14.9 5.6 47 5.6 NE 6 11 3 6 1009.8 1009.2 0.0
21/10:30pm 16.9 14.7 5.5 47 5.6 NE 6 11 3 6 1010.3 1009.8 0.0
21/10:00pm 16.5 14.9 6.3 51 5.1 NNE 4 7 2 4 1010.5 1010.0 0.0
21/09:30pm 17.0 15.4 6.5 50 5.3 N 4 7 2 4 1010.8 1010.3 0.0
21/09:00pm 17.4 16.2 6.3 48 5.6 N 2 7 1 4 1011.1 1010.5 0.0
21/08:30pm 17.1 16.1 7.2 52 5.0 N 2 4 1 2 1010.9 1010.4 0.0
21/08:00pm 18.1 17.1 7.5 50 5.5 N 2 7 1 4 1010.8 1010.3 0.0
21/07:30pm 19.3 18.0 7.7 47 6.0 NNW 4 6 2 3 1011.1 1010.5 0.0
21/07:00pm 20.4 18.4 6.4 40 7.2 N 6 7 3 4 1011.2 1010.6 0.0
21/06:30pm 20.9 19.4 9.2 47 6.3 NW 7 15 4 8 1011.2 1010.6 0.0
21/06:00pm 20.3 18.5 9.5 50 5.9 NW 9 15 5 8 1011.2 1010.6 0.0
21/05:30pm 20.2 18.2 8.8 48 6.1 NW 9 13 5 7 1011.1 1010.5 0.0
21/05:00pm 19.5 17.7 9.4 52 5.4 NW 9 15 5 8 1010.8 1010.3 0.0
21/04:30pm 19.8 17.5 7.5 45 6.4 WNW 9 13 5 7 1011.3 1010.7 0.0
21/04:00pm 19.3 17.8 8.6 50 5.7 NW 6 13 3 7 1011.2 1010.6 0.0
21/03:30pm 20.1 18.2 10.5 54 5.3 NW 11 19 6 10 1011.8 1011.2 0.0
21/03:00pm 19.2 17.0 9.4 53 5.3 NW 11 20 6 11 1012.1 1011.5 0.0
21/02:30pm 18.6 15.4 9.9 57 4.7 NW 17 28 9 15 1012.1 1011.5 0.0
21/02:00pm 19.0 17.9 10.6 58 4.6 NNW 7 13 4 7 1012.4 1011.8 0.0
21/01:30pm 17.8 15.4 10.2 61 4.1 NNW 13 22 7 12 1013.0 1012.5 0.0
21/01:00pm 17.8 15.8 10.2 61 4.1 NW 11 20 6 11 1013.0 1012.5 0.0
21/12:30pm 17.1 13.9 10.0 63 3.8 NNW 17 26 9 14 1013.2 1012.7 0.0
21/12:00pm 16.7 14.3 10.1 65 3.5 NNW 13 26 7 14 1013.2 1012.7 0.0
21/11:30am 16.1 13.1 9.1 63 3.7 NW 15 24 8 13 1013.3 1012.8 0.0
21/11:00am 15.8 13.6 9.5 66 3.3 NNW 11 22 6 12 1013.3 1012.8 0.0
21/10:30am 15.7 13.1 9.4 66 3.3 WNW 13 20 7 11 1013.3 1012.8 0.0
21/10:00am 14.8 12.5 9.0 68 3.0 WNW 11 20 6 11 1013.2 1012.7 0.0
21/09:30am 14.7 12.0 8.9 68 3.0 NW 13 19 7 10 1013.2 1012.7 0.0
21/09:00am 14.0 11.0 9.2 73 2.5 WNW 15 20 8 11 1013.2 1012.7 1.2
21/08:30am 13.3 11.1 9.2 76 2.1 WNW 11 20 6 11 1013.1 1012.6 1.2
21/08:00am 12.9 11.0 9.2 78 1.9 W 9 15 5 8 1012.6 1012.0 1.2
21/07:30am 12.2 10.3 9.2 82 1.5 W 9 13 5 7 1012.4 1011.8 1.2
21/07:00am 11.5 9.6 9.1 85 1.2 W 9 11 5 6 1012.1 1011.5 1.2
21/06:30am 10.7 8.4 9.0 89 0.9 W 11 15 6 8 1012.0 1011.4 1.2
21/06:00am 10.4 8.0 8.8 90 0.8 W 11 15 6 8 1011.8 1011.2 1.2
21/05:30am 10.0 8.5 8.6 91 0.7 NW 6 9 3 5 1011.2 1010.6 1.2
21/05:00am 10.5 9.0 9.3 92 0.6 WNW 7 11 4 6 1011.4 1010.8 1.2
21/04:30am 11.0 9.4 10.1 94 0.5 W 9 15 5 8 1011.5 1010.9 1.2
21/04:00am 10.9 9.4 10.4 97 0.3 WNW 9 13 5 7 1011.6 1011.0 1.2
21/03:30am 11.0 9.2 10.7 98 0.2 W 11 15 6 8 1011.7 1011.1 1.2
21/03:00am 10.4 9.1 9.9 97 0.3 WNW 7 9 4 5 1011.5 1010.9 1.2
21/02:30am 10.7 9.5 10.2 97 0.3 WNW 7 9 4 5 1011.3 1010.7 1.2
21/02:00am 10.9 9.3 10.1 95 0.4 W 9 11 5 6 1011.6 1011.0 1.2
21/01:30am 11.2 10.1 10.6 96 0.3 WSW 7 9 4 5 1011.7 1011.1 1.2
21/01:00am 11.3 10.4 10.7 96 0.3 SW 6 7 3 4 1011.8 1011.2 1.2
21/12:30am 11.2 9.7 10.6 96 0.3 SW 9 11 5 6 1012.0 1011.4 1.2
21/12:00am 11.2 9.7 10.4 95 0.4 SW 9 15 5 8 1012.1 1011.5 1.2

Latest Capital City Observations: Canberra | Sydney | Melbourne | Brisbane | Adelaide | Perth | Hobart | Darwin

Other Formats:

Comma delimited format used in spreadsheet applications
http://www.bom.gov.au/fwo/IDS60901/IDS60901.94811.axf

JavaScript Object Notation format (JSON) in row-major order
http://www.bom.gov.au/fwo/IDS60901/IDS60901.94811.json